CDS6 weather

CLOSED Parry Sound/Derbyshire Island Seaplane Base
Ontario, Canada

Public forecast

Using degrees Celsius for public forecast. Weather courtesy of forecast.io.

METAR (pilot weather report)

Closest report is Muskoka Airport, 39.6 nm (73.3 km) ESE. Retrieved 2019/07/18 10:00 UTC (54 minutes ago):

CYQA 181000Z AUTO 10003KT 9SM CLR 15/13 A2996 RMK SLP147 DENSITY ALT 1100FT

TAF (pilot weather forecast)

Forecast is more than 12 hours old.

Closest forecast is Muskoka Airport, 39.6 nm (73.3 km) ESE. Retrieved 2019/07/17 20:00 UTC (15 hours ago):

TAF CYQA 171938Z 1720/1802 35006KT P6SM FEW040 RMK FCST BASED ON AUTO OBS. NXT FCST WILL BE ISSUED AT 181145Z